createdAt,value
2023-02-09T00:00:15.200Z,5.10
2023-02-09T00:01:15.178Z,5.00
2023-02-09T00:02:15.353Z,4.50
2023-02-09T00:03:15.173Z,4.70
2023-02-09T00:04:15.150Z,5.20
2023-02-09T00:05:15.130Z,5.30
2023-02-09T00:06:15.122Z,5.40
2023-02-09T00:07:15.091Z,5.00
2023-02-09T00:08:15.113Z,5.40
2023-02-09T00:09:15.087Z,4.80
2023-02-09T00:10:15.065Z,5.20
2023-02-09T00:11:15.060Z,5.20
2023-02-09T00:12:15.053Z,5.10
2023-02-09T00:13:15.055Z,5.40
2023-02-09T00:14:15.060Z,5.60
2023-02-09T00:15:15.015Z,5.20
2023-02-09T00:16:15.107Z,5.70
2023-02-09T00:17:14.991Z,5.50
2023-02-09T00:18:14.986Z,5.60
2023-02-09T00:19:14.974Z,5.80
2023-02-09T00:20:14.977Z,5.30
2023-02-09T00:21:14.971Z,5.10
2023-02-09T00:22:14.942Z,5.60
2023-02-09T00:23:14.927Z,5.40
2023-02-09T00:24:14.947Z,5.60
2023-02-09T00:25:14.917Z,5.60
2023-02-09T00:26:14.937Z,5.10
2023-02-09T00:27:14.878Z,5.10
2023-02-09T00:28:14.919Z,5.50
2023-02-09T00:29:14.866Z,5.70
2023-02-09T00:30:14.884Z,5.30
2023-02-09T00:31:14.905Z,5.40
2023-02-09T00:32:14.857Z,5.40
2023-02-09T00:33:14.850Z,5.60
2023-02-09T00:34:14.828Z,5.70
2023-02-09T00:35:14.802Z,5.30
2023-02-09T00:36:14.807Z,5.80
2023-02-09T00:37:14.761Z,5.70
2023-02-09T00:38:14.773Z,5.10
2023-02-09T00:39:14.795Z,5.60
2023-02-09T00:40:14.743Z,5.80
2023-02-09T00:41:14.740Z,6.20
2023-02-09T00:42:14.708Z,5.70
2023-02-09T00:43:14.709Z,5.60
2023-02-09T00:44:14.701Z,5.70
2023-02-09T00:45:14.683Z,5.90
2023-02-09T00:46:14.752Z,6.30
2023-02-09T00:47:14.657Z,5.70
2023-02-09T00:48:14.660Z,5.70
2023-02-09T00:49:14.639Z,5.30
2023-02-09T00:50:14.647Z,5.60
2023-02-09T00:51:14.613Z,5.80
2023-02-09T00:52:14.630Z,5.90
2023-02-09T00:53:15.557Z,5.60
2023-02-09T00:54:14.578Z,6.00
2023-02-09T00:55:14.601Z,5.50
2023-02-09T00:56:14.564Z,5.70
2023-02-09T00:57:14.561Z,5.80
2023-02-09T00:58:14.561Z,5.80
2023-02-09T00:59:14.571Z,5.70
2023-02-09T01:00:14.531Z,5.90
2023-02-09T01:01:14.560Z,6.00
2023-02-09T01:02:14.497Z,5.60
2023-02-09T01:03:14.482Z,5.50
2023-02-09T01:04:14.568Z,6.00
2023-02-09T01:05:14.477Z,6.20
2023-02-09T01:06:14.459Z,6.10
2023-02-09T01:07:14.444Z,6.10
2023-02-09T01:08:14.448Z,6.00
2023-02-09T01:09:14.429Z,5.70
2023-02-09T01:10:14.411Z,5.80
2023-02-09T01:11:14.419Z,5.80
2023-02-09T01:12:14.398Z,6.00
2023-02-09T01:13:14.378Z,5.30
2023-02-09T01:14:14.363Z,5.90
2023-02-09T01:15:14.350Z,5.90
2023-02-09T01:16:14.388Z,6.00
2023-02-09T01:17:14.353Z,6.10
2023-02-09T01:18:14.323Z,6.20
2023-02-09T01:19:14.321Z,5.50
2023-02-09T01:20:14.312Z,6.20
2023-02-09T01:21:14.295Z,6.20
2023-02-09T01:22:14.288Z,5.90
2023-02-09T01:23:14.272Z,6.30
2023-02-09T01:24:14.290Z,6.10
2023-02-09T01:25:14.243Z,6.20
2023-02-09T01:26:14.232Z,6.20
2023-02-09T01:27:14.219Z,6.10
2023-02-09T01:28:14.264Z,6.10
2023-02-09T01:29:14.206Z,6.10
2023-02-09T01:30:14.226Z,6.00
2023-02-09T01:31:14.253Z,6.20
2023-02-09T01:32:14.224Z,5.80
2023-02-09T01:33:14.161Z,6.40
2023-02-09T01:34:14.170Z,6.70
2023-02-09T01:35:14.136Z,6.40
2023-02-09T01:36:14.141Z,6.30
2023-02-09T01:37:14.143Z,6.00
2023-02-09T01:38:14.123Z,6.10
2023-02-09T01:39:14.099Z,6.30
2023-02-09T01:40:14.098Z,6.20
2023-02-09T01:41:14.074Z,6.80
2023-02-09T01:42:14.061Z,7.40
2023-02-09T01:43:14.085Z,6.50
2023-02-09T01:44:14.045Z,6.20
2023-02-09T01:45:14.024Z,6.80
2023-02-09T01:46:14.046Z,6.60
2023-02-09T01:47:14.044Z,6.30
2023-02-09T01:48:14.035Z,6.10
2023-02-09T01:49:13.987Z,6.10
2023-02-09T01:50:13.989Z,6.30
2023-02-09T01:51:13.982Z,6.00
2023-02-09T01:52:13.999Z,6.10
2023-02-09T01:53:13.963Z,6.30
2023-02-09T01:54:13.927Z,5.90
2023-02-09T01:55:13.929Z,6.50
2023-02-09T01:56:13.943Z,6.70
2023-02-09T01:57:13.908Z,6.30
2023-02-09T01:58:13.899Z,6.70
2023-02-09T01:59:13.870Z,7.20
2023-02-09T02:00:13.903Z,6.40
2023-02-09T02:01:13.890Z,6.40
2023-02-09T02:02:13.898Z,6.30
2023-02-09T02:03:13.863Z,6.90
2023-02-09T02:04:13.829Z,6.70
2023-02-09T02:05:13.830Z,6.20
2023-02-09T02:06:13.806Z,6.20
2023-02-09T02:07:13.790Z,6.50
2023-02-09T02:08:13.822Z,6.60
2023-02-09T02:09:13.781Z,6.50
2023-02-09T02:10:13.749Z,6.60
2023-02-09T02:11:13.759Z,6.60
2023-02-09T02:12:13.744Z,6.70
2023-02-09T02:13:13.769Z,6.40
2023-02-09T02:14:13.742Z,6.00
2023-02-09T02:15:13.711Z,6.90
2023-02-09T02:16:13.791Z,6.70
2023-02-09T02:17:13.670Z,6.90
2023-02-09T02:18:13.700Z,6.90
2023-02-09T02:19:13.658Z,6.90
2023-02-09T02:20:13.650Z,6.40
2023-02-09T02:21:13.667Z,6.60
2023-02-09T02:22:13.633Z,7.30
2023-02-09T02:23:13.606Z,6.40
2023-02-09T02:24:13.596Z,6.90
2023-02-09T02:25:13.598Z,7.10
2023-02-09T02:26:13.592Z,7.10
2023-02-09T02:27:13.592Z,6.70
2023-02-09T02:28:13.613Z,6.30
2023-02-09T02:29:13.582Z,6.90
2023-02-09T02:30:13.547Z,7.10
2023-02-09T02:31:13.641Z,7.00
2023-02-09T02:32:13.562Z,6.70
2023-02-09T02:33:13.513Z,6.60
2023-02-09T02:34:13.509Z,7.30
2023-02-09T02:35:13.506Z,7.00
2023-02-09T02:36:13.476Z,6.90
2023-02-09T02:37:13.472Z,6.50
2023-02-09T02:38:13.470Z,6.90
2023-02-09T02:39:13.453Z,6.80
2023-02-09T02:40:13.497Z,6.80
2023-02-09T02:41:13.421Z,7.00
2023-02-09T02:42:13.415Z,6.70
2023-02-09T02:43:13.716Z,7.20
2023-02-09T02:44:14.861Z,6.90
2023-02-09T02:45:13.434Z,7.20
2023-02-09T02:46:13.462Z,7.00
2023-02-09T02:47:13.365Z,6.90
2023-02-09T02:48:13.562Z,8.10
2023-02-09T02:49:15.218Z,7.00
2023-02-09T02:50:13.488Z,6.70
2023-02-09T02:51:13.334Z,6.80
2023-02-09T02:52:13.343Z,6.80
2023-02-09T02:53:13.300Z,7.00
2023-02-09T02:54:13.334Z,7.40
2023-02-09T02:55:13.281Z,7.90
2023-02-09T02:56:13.268Z,7.30
2023-02-09T02:57:13.265Z,7.20
2023-02-09T02:58:13.246Z,7.30
2023-02-09T02:59:13.247Z,6.90
2023-02-09T03:00:13.795Z,7.10
2023-02-09T03:01:13.240Z,6.90
2023-02-09T03:02:13.219Z,6.90
2023-02-09T03:03:13.192Z,7.30
2023-02-09T03:04:13.179Z,6.80
2023-02-09T03:05:13.222Z,6.90
2023-02-09T03:06:13.169Z,7.30
2023-02-09T03:07:14.089Z,7.40
2023-02-09T03:08:13.143Z,8.10
2023-02-09T03:09:13.126Z,7.60
2023-02-09T03:10:13.157Z,7.20
2023-02-09T03:11:13.133Z,7.30
2023-02-09T03:12:13.135Z,7.70
2023-02-09T03:13:13.083Z,7.50
2023-02-09T03:14:13.139Z,8.30
2023-02-09T03:19:56.656Z,6.80
2023-02-09T03:20:53.707Z,7.20
2023-02-09T03:21:53.694Z,7.90
2023-02-09T03:22:53.697Z,7.90
2023-02-09T03:23:53.679Z,7.60
2023-02-09T03:24:53.652Z,7.20
2023-02-09T03:25:53.676Z,7.70
2023-02-09T03:26:53.660Z,7.60
2023-02-09T03:27:53.663Z,7.10
2023-02-09T03:28:53.618Z,8.20
2023-02-09T03:29:53.606Z,7.60
2023-02-09T03:30:53.747Z,7.40
2023-02-09T03:31:53.614Z,7.90
2023-02-09T03:32:53.558Z,7.30
2023-02-09T03:33:53.578Z,7.20
2023-02-09T03:34:53.535Z,7.50
2023-02-09T03:35:53.560Z,7.30
2023-02-09T03:36:54.473Z,8.00
2023-02-09T03:37:53.516Z,7.90
2023-02-09T03:38:53.523Z,8.20
2023-02-09T03:39:53.489Z,8.00
2023-02-09T03:40:53.607Z,8.10
2023-02-09T03:41:53.482Z,8.20
2023-02-09T03:42:53.467Z,7.70
2023-02-09T03:43:53.465Z,8.30
2023-02-09T03:44:53.443Z,8.10
2023-02-09T03:45:53.437Z,7.90
2023-02-09T03:46:53.478Z,7.70
2023-02-09T03:47:53.412Z,8.40
2023-02-09T03:48:53.403Z,8.50
2023-02-09T03:49:53.417Z,7.90
2023-02-09T03:50:53.373Z,8.00
2023-02-09T03:51:53.392Z,8.50
2023-02-09T03:52:53.622Z,7.90
2023-02-09T03:53:53.338Z,7.70
2023-02-09T03:54:53.326Z,7.60
2023-02-09T03:55:53.331Z,8.10
2023-02-09T03:56:53.331Z,7.80
2023-02-09T03:57:53.308Z,8.20
2023-02-09T03:58:53.298Z,8.20
2023-02-09T03:59:53.280Z,8.30
2023-02-09T04:00:53.306Z,9.00
2023-02-09T04:01:53.257Z,8.00
2023-02-09T04:02:53.345Z,8.20
2023-02-09T04:03:53.240Z,8.70
2023-02-09T04:04:53.215Z,7.90
2023-02-09T04:05:53.239Z,8.40
2023-02-09T04:06:53.188Z,8.30
2023-02-09T04:07:53.187Z,8.50
2023-02-09T04:08:53.181Z,7.90
2023-02-09T04:09:53.300Z,7.80
2023-02-09T04:10:53.166Z,8.50
2023-02-09T04:11:53.138Z,8.40
2023-02-09T04:12:53.152Z,7.60
2023-02-09T04:13:53.119Z,7.70
2023-02-09T04:14:53.442Z,8.00
2023-02-09T04:15:53.322Z,7.80
2023-02-09T04:16:53.094Z,8.90
2023-02-09T04:17:53.447Z,9.00
2023-02-09T04:18:53.101Z,8.60
2023-02-09T04:19:53.078Z,7.80
2023-02-09T04:20:53.050Z,8.60
2023-02-09T04:21:53.702Z,8.40
2023-02-09T04:22:53.028Z,7.80
2023-02-09T04:23:53.011Z,8.30
2023-02-09T04:24:53.020Z,8.10
2023-02-09T04:25:52.999Z,8.90
2023-02-09T04:26:52.984Z,8.60
2023-02-09T04:27:53.021Z,8.10
2023-02-09T04:28:52.979Z,8.30
2023-02-09T04:29:52.971Z,7.70
2023-02-09T04:30:53.031Z,8.20
2023-02-09T04:31:52.971Z,7.40
2023-02-09T04:32:52.925Z,8.20
2023-02-09T04:33:52.910Z,8.10
2023-02-09T04:34:52.908Z,9.40
2023-02-09T04:35:52.912Z,8.40
2023-02-09T04:36:52.883Z,8.50
2023-02-09T04:37:52.901Z,8.60
2023-02-09T04:38:52.867Z,8.40
2023-02-09T04:39:53.345Z,8.20
2023-02-09T04:40:52.840Z,8.50
2023-02-09T04:41:52.838Z,8.10
2023-02-09T04:42:53.659Z,9.00
2023-02-09T04:43:52.801Z,8.30
2023-02-09T04:44:52.794Z,8.20
2023-02-09T04:45:52.857Z,8.90
2023-02-09T04:46:52.771Z,8.80
2023-02-09T04:47:52.769Z,8.40
2023-02-09T04:48:52.765Z,8.10
2023-02-09T04:49:52.739Z,9.00
2023-02-09T04:50:52.789Z,9.00
2023-02-09T04:51:52.750Z,8.20
2023-02-09T04:52:52.737Z,8.70
2023-02-09T04:53:52.718Z,8.40
2023-02-09T04:54:52.684Z,8.80
2023-02-09T04:55:52.677Z,8.40
2023-02-09T04:56:52.698Z,8.50
2023-02-09T04:57:52.695Z,8.90
2023-02-09T04:58:52.648Z,9.00
2023-02-09T04:59:52.634Z,9.00
2023-02-09T05:00:52.691Z,8.80
2023-02-09T05:01:52.633Z,8.80
2023-02-09T05:02:52.610Z,8.80
2023-02-09T05:03:52.703Z,9.80
2023-02-09T05:04:52.581Z,8.80
2023-02-09T05:05:52.558Z,8.50
2023-02-09T05:06:52.575Z,8.50
2023-02-09T05:07:52.689Z,8.90
2023-02-09T05:08:52.529Z,9.00
2023-02-09T05:09:52.555Z,8.60
2023-02-09T05:10:53.496Z,9.20
2023-02-09T05:11:52.522Z,8.90
2023-02-09T05:12:52.487Z,9.40
2023-02-09T05:13:52.810Z,9.10
2023-02-09T05:14:52.494Z,9.30
2023-02-09T05:15:52.518Z,9.70
2023-02-09T05:16:52.758Z,8.40
2023-02-09T05:17:52.683Z,8.90
2023-02-09T05:18:52.614Z,8.40
2023-02-09T05:19:52.403Z,8.60
2023-02-09T05:20:52.396Z,8.90
2023-02-09T05:21:52.409Z,9.30
2023-02-09T05:22:53.079Z,8.90
2023-02-09T05:23:52.356Z,9.20
2023-02-09T05:24:52.856Z,8.70
2023-02-09T05:25:52.483Z,8.90
2023-02-09T05:26:52.353Z,8.60
2023-02-09T05:27:53.330Z,9.00
2023-02-09T05:28:52.319Z,8.80
2023-02-09T05:29:52.294Z,9.50
2023-02-09T05:30:52.504Z,9.50
2023-02-09T05:31:52.369Z,9.40
2023-02-09T05:32:52.285Z,8.70
2023-02-09T05:33:52.259Z,8.10
2023-02-09T05:34:52.298Z,9.60
2023-02-09T05:35:52.246Z,9.40
2023-02-09T05:36:52.257Z,9.40
2023-02-09T05:37:52.237Z,9.00
2023-02-09T05:38:52.255Z,8.80
2023-02-09T05:39:52.264Z,8.70
2023-02-09T05:40:52.222Z,10.10
2023-02-09T05:41:53.614Z,10.70
2023-02-09T05:42:52.174Z,9.70
2023-02-09T05:43:52.153Z,9.10
2023-02-09T05:44:52.140Z,9.60
2023-02-09T05:45:52.240Z,8.70
2023-02-09T05:46:52.144Z,8.90
2023-02-09T05:47:52.109Z,9.20
2023-02-09T05:48:53.541Z,9.20
2023-02-09T05:49:52.086Z,9.40
2023-02-09T05:50:52.101Z,9.30
2023-02-09T05:51:52.062Z,9.50
2023-02-09T05:52:52.895Z,9.40
2023-02-09T05:53:52.045Z,9.90
2023-02-09T05:54:52.083Z,9.50
2023-02-09T05:55:52.014Z,9.10
2023-02-09T05:56:52.009Z,9.70
2023-02-09T05:57:52.141Z,9.30
2023-02-09T05:58:52.010Z,9.30
2023-02-09T05:59:51.966Z,9.90
2023-02-09T06:00:51.982Z,9.10
2023-02-09T06:01:51.957Z,9.90
2023-02-09T06:02:52.035Z,9.80
2023-02-09T06:03:51.933Z,8.30
2023-02-09T06:04:51.913Z,8.40
2023-02-09T06:05:51.906Z,9.20
2023-02-09T06:06:51.920Z,9.80
2023-02-09T06:07:51.905Z,9.00
2023-02-09T06:08:52.006Z,9.20
2023-02-09T06:09:51.864Z,9.10
2023-02-09T06:10:52.842Z,9.20
2023-02-09T06:11:51.834Z,10.00
2023-02-09T06:12:51.858Z,9.40
2023-02-09T06:13:51.848Z,10.00
2023-02-09T06:14:51.802Z,9.70
2023-02-09T06:15:51.846Z,9.50
2023-02-09T06:16:51.796Z,9.30
2023-02-09T06:17:51.798Z,9.40
2023-02-09T06:18:51.764Z,9.60
2023-02-09T06:19:52.137Z,9.50
2023-02-09T06:20:51.745Z,9.50
2023-02-09T06:21:51.742Z,9.70
2023-02-09T06:22:51.749Z,9.70
2023-02-09T06:23:51.729Z,8.40
2023-02-09T06:24:51.706Z,9.60
2023-02-09T06:25:51.688Z,9.20
2023-02-09T06:26:51.692Z,9.60
2023-02-09T06:27:52.500Z,10.40
2023-02-09T06:28:51.676Z,10.20
2023-02-09T06:29:51.655Z,10.10
2023-02-09T06:30:52.669Z,9.20
2023-02-09T06:31:51.740Z,9.50
2023-02-09T06:32:51.617Z,9.90
2023-02-09T06:33:51.648Z,9.80
2023-02-09T06:34:51.611Z,9.50
2023-02-09T06:35:52.493Z,10.50
2023-02-09T06:36:51.581Z,10.10
2023-02-09T06:37:51.566Z,10.90
2023-02-09T06:38:51.575Z,10.50
2023-02-09T06:39:51.599Z,9.80
2023-02-09T06:40:51.763Z,10.60
2023-02-09T06:41:51.524Z,10.50
2023-02-09T06:42:51.689Z,9.90
2023-02-09T06:43:51.509Z,9.90
2023-02-09T06:44:51.496Z,9.90
2023-02-09T06:45:51.514Z,9.60
2023-02-09T06:46:51.468Z,10.50
2023-02-09T06:47:51.630Z,9.90
2023-02-09T06:48:51.480Z,9.50
2023-02-09T06:49:51.460Z,9.50
2023-02-09T06:50:51.418Z,9.50
2023-02-09T06:51:51.416Z,9.20
2023-02-09T06:52:51.443Z,10.00
2023-02-09T06:53:51.393Z,10.60
2023-02-09T06:54:51.419Z,9.80
2023-02-09T06:55:51.392Z,9.20
2023-02-09T06:56:51.356Z,9.70
2023-02-09T06:57:51.335Z,10.20
2023-02-09T06:58:51.342Z,10.20
2023-02-09T06:59:51.326Z,9.70
2023-02-09T07:00:51.353Z,9.30
2023-02-09T07:01:54.400Z,9.60
2023-02-09T07:02:51.322Z,9.70
2023-02-09T07:03:51.309Z,9.80
2023-02-09T07:04:51.278Z,10.30
2023-02-09T07:05:51.280Z,9.60
2023-02-09T07:06:51.286Z,10.60
2023-02-09T07:07:51.400Z,9.90
2023-02-09T07:08:51.232Z,10.20
2023-02-09T07:09:51.229Z,10.40
2023-02-09T07:10:51.213Z,9.80
2023-02-09T07:11:52.129Z,9.90
2023-02-09T07:12:51.189Z,9.30
2023-02-09T07:13:51.232Z,9.60
2023-02-09T07:14:51.163Z,9.40
2023-02-09T07:15:51.240Z,9.60
2023-02-09T07:16:51.150Z,10.00
2023-02-09T07:17:51.123Z,10.30
2023-02-09T07:18:51.115Z,10.50
2023-02-09T07:19:51.144Z,10.10
2023-02-09T07:20:51.098Z,9.70
2023-02-09T07:21:51.080Z,10.20
2023-02-09T07:22:51.083Z,10.60
2023-02-09T07:23:51.060Z,11.00
2023-02-09T07:24:51.057Z,10.80
2023-02-09T07:25:51.080Z,10.10
2023-02-09T07:26:51.857Z,10.10
2023-02-09T07:27:51.085Z,9.70
2023-02-09T07:28:51.030Z,10.70
2023-02-09T07:29:51.002Z,9.70
2023-02-09T07:30:51.071Z,10.10
2023-02-09T07:31:51.071Z,10.10
2023-02-09T07:32:50.973Z,20.30
2023-02-09T07:33:50.972Z,14.40
2023-02-09T07:34:50.967Z,12.50
2023-02-09T07:35:50.934Z,12.20
2023-02-09T07:36:50.957Z,10.30
2023-02-09T07:37:50.923Z,9.80
2023-02-09T07:38:50.912Z,11.20
2023-02-09T07:39:50.893Z,10.40
2023-02-09T07:40:50.880Z,10.40
2023-02-09T07:41:50.876Z,10.50
2023-02-09T07:42:50.892Z,10.00
2023-02-09T07:43:50.852Z,10.30
2023-02-09T07:44:50.867Z,10.50
2023-02-09T07:45:50.820Z,10.30
2023-02-09T07:46:50.980Z,9.30
2023-02-09T07:47:50.819Z,11.10
2023-02-09T07:48:50.805Z,10.90
2023-02-09T07:49:50.786Z,11.20
2023-02-09T07:50:50.784Z,11.30
2023-02-09T07:51:50.791Z,11.10
2023-02-09T07:52:50.751Z,10.80
2023-02-09T07:53:50.737Z,11.40
2023-02-09T07:54:51.806Z,11.60
2023-02-09T07:55:50.722Z,11.60
2023-02-09T07:56:50.757Z,14.00
2023-02-09T07:57:50.684Z,13.40
2023-02-09T07:58:50.675Z,12.90
2023-02-09T07:59:50.678Z,10.30
2023-02-09T08:00:50.678Z,10.80
2023-02-09T08:01:50.690Z,11.20
2023-02-09T08:02:50.694Z,10.20
2023-02-09T08:03:50.643Z,10.70
2023-02-09T08:04:50.649Z,10.60
2023-02-09T08:05:50.621Z,10.00
2023-02-09T08:06:50.618Z,10.20
2023-02-09T08:07:50.607Z,10.10
2023-02-09T08:08:50.583Z,10.40
2023-02-09T08:09:50.588Z,10.20
2023-02-09T08:10:50.570Z,10.20
2023-02-09T08:11:50.552Z,10.30
2023-02-09T08:12:50.536Z,11.10
2023-02-09T08:13:50.539Z,10.70
2023-02-09T08:14:50.572Z,9.90
2023-02-09T08:15:50.632Z,10.80
2023-02-09T08:16:50.493Z,10.10
2023-02-09T08:17:50.494Z,10.60
2023-02-09T08:18:50.848Z,10.10
2023-02-09T08:19:50.480Z,10.90
2023-02-09T08:20:50.456Z,10.60
2023-02-09T08:21:50.487Z,10.50
2023-02-09T08:22:50.422Z,10.50
2023-02-09T08:23:50.421Z,10.90
2023-02-09T08:24:50.423Z,10.80
2023-02-09T08:25:50.395Z,10.50
2023-02-09T08:26:50.380Z,12.00
2023-02-09T08:27:50.490Z,11.40
2023-02-09T08:28:50.418Z,11.60
2023-02-09T08:29:50.458Z,11.60
2023-02-09T08:30:50.443Z,10.80
2023-02-09T08:31:50.407Z,10.40
2023-02-09T08:32:50.352Z,11.20
2023-02-09T08:33:50.314Z,12.20
2023-02-09T08:34:50.294Z,10.40
2023-02-09T08:35:51.737Z,10.80
2023-02-09T08:36:50.444Z,11.10
2023-02-09T08:37:50.253Z,10.50
2023-02-09T08:38:50.498Z,10.70
2023-02-09T08:39:50.449Z,10.90
2023-02-09T08:40:50.408Z,10.80
2023-02-09T08:41:50.217Z,11.10
2023-02-09T08:42:50.246Z,10.70
2023-02-09T08:43:50.419Z,10.90
2023-02-09T08:44:50.202Z,11.60
2023-02-09T08:45:50.826Z,11.70
2023-02-09T08:46:50.341Z,10.90
2023-02-09T08:47:50.169Z,11.60
2023-02-09T08:48:50.156Z,11.20
2023-02-09T08:49:50.170Z,11.80
2023-02-09T08:50:50.128Z,11.60
2023-02-09T08:51:50.113Z,11.90
2023-02-09T08:52:50.128Z,11.40
2023-02-09T08:53:51.897Z,12.00
2023-02-09T08:54:50.110Z,10.70
2023-02-09T08:55:50.083Z,11.80
2023-02-09T08:56:50.060Z,11.50
2023-02-09T08:57:50.079Z,11.90
2023-02-09T08:58:50.060Z,11.30
2023-02-09T08:59:50.078Z,11.60
2023-02-09T09:00:50.101Z,10.60
2023-02-09T09:01:50.027Z,12.70
2023-02-09T09:02:49.994Z,10.80
2023-02-09T09:03:50.112Z,11.40
2023-02-09T09:04:49.999Z,10.90
2023-02-09T09:05:50.083Z,11.00
2023-02-09T09:06:49.962Z,11.70
2023-02-09T09:07:49.959Z,11.50
2023-02-09T09:08:49.935Z,12.50
2023-02-09T09:09:49.940Z,12.80
2023-02-09T09:10:49.940Z,11.20
2023-02-09T09:11:49.925Z,11.20
2023-02-09T09:12:49.933Z,11.40
2023-02-09T09:13:49.878Z,11.70
2023-02-09T09:14:49.878Z,11.20
2023-02-09T09:15:49.962Z,11.60
2023-02-09T09:16:49.893Z,11.70
2023-02-09T09:17:49.844Z,11.40
2023-02-09T09:18:49.855Z,11.20
2023-02-09T09:19:49.824Z,11.70
2023-02-09T09:20:49.804Z,11.20
2023-02-09T09:21:49.832Z,11.30
2023-02-09T09:22:49.839Z,11.30
2023-02-09T09:23:49.770Z,11.40
2023-02-09T09:24:49.756Z,11.50
2023-02-09T09:25:49.763Z,11.60
2023-02-09T09:26:49.740Z,11.30
2023-02-09T09:27:49.730Z,10.90
2023-02-09T09:28:49.780Z,12.40
2023-02-09T09:29:49.712Z,11.50
2023-02-09T09:30:49.747Z,11.60
2023-02-09T09:31:49.722Z,11.40
2023-02-09T09:32:52.683Z,11.90
2023-02-09T09:33:49.720Z,11.80
2023-02-09T09:34:49.656Z,11.10
2023-02-09T09:35:49.664Z,11.30
2023-02-09T09:36:49.647Z,11.70
2023-02-09T09:37:49.663Z,11.00
2023-02-09T09:38:49.620Z,11.20
2023-02-09T09:39:49.610Z,11.30
2023-02-09T09:40:50.575Z,11.90
2023-02-09T09:41:49.617Z,11.70
2023-02-09T09:42:49.566Z,11.70
2023-02-09T09:43:49.568Z,11.90
2023-02-09T09:44:49.540Z,11.40
2023-02-09T09:45:50.011Z,11.60
2023-02-09T09:46:49.539Z,12.30
2023-02-09T09:47:49.551Z,11.10
2023-02-09T09:48:49.501Z,11.60
2023-02-09T09:49:49.502Z,11.60
2023-02-09T09:50:49.487Z,12.30
2023-02-09T09:51:49.467Z,11.90
2023-02-09T09:52:49.491Z,11.70
2023-02-09T09:53:49.467Z,11.70
2023-02-09T09:54:49.430Z,12.20
2023-02-09T09:55:49.814Z,11.50
2023-02-09T09:56:49.447Z,11.00
2023-02-09T09:57:49.404Z,10.90
2023-02-09T09:58:49.438Z,12.30
2023-02-09T09:59:49.388Z,11.50
2023-02-09T10:00:49.374Z,11.70
2023-02-09T10:01:49.364Z,11.80
2023-02-09T10:02:49.365Z,12.00
2023-02-09T10:03:49.352Z,12.10
2023-02-09T10:04:49.375Z,11.00
2023-02-09T10:05:49.324Z,10.60
2023-02-09T10:06:49.322Z,10.80
2023-02-09T10:07:49.307Z,11.50
2023-02-09T10:08:49.293Z,11.00
2023-02-09T10:09:49.272Z,11.10
2023-02-09T10:10:49.280Z,10.90
2023-02-09T10:11:49.233Z,10.50
2023-02-09T10:12:49.223Z,10.20
2023-02-09T10:13:49.226Z,11.50
2023-02-09T10:14:49.229Z,11.40
2023-02-09T10:15:49.193Z,10.90
2023-02-09T10:16:49.495Z,10.70
2023-02-09T10:17:49.204Z,10.90
2023-02-09T10:18:54.406Z,10.90
2023-02-09T10:19:49.145Z,10.40
2023-02-09T10:20:49.129Z,10.30
2023-02-09T10:21:49.162Z,10.70
2023-02-09T10:22:49.114Z,10.00
2023-02-09T10:23:49.124Z,10.40
2023-02-09T10:24:49.095Z,10.80
2023-02-09T10:25:49.090Z,10.00
2023-02-09T10:26:49.110Z,10.20
2023-02-09T10:27:49.055Z,9.90
2023-02-09T10:28:49.060Z,10.50
2023-02-09T10:29:49.038Z,21.20
2023-02-09T10:30:49.146Z,12.50
2023-02-09T10:31:49.134Z,26.70
2023-02-09T10:32:49.044Z,15.90
2023-02-09T10:33:49.009Z,12.00
2023-02-09T10:34:48.990Z,11.20
2023-02-09T10:35:48.980Z,11.30
2023-02-09T10:36:49.001Z,13.70
2023-02-09T10:37:48.948Z,23.70
2023-02-09T10:38:48.939Z,18.50
2023-02-09T10:39:48.979Z,16.50
2023-02-09T10:40:48.913Z,13.10
2023-02-09T10:41:48.938Z,11.20
2023-02-09T10:42:48.971Z,12.30
2023-02-09T10:43:48.881Z,11.80
2023-02-09T10:44:48.875Z,10.80
2023-02-09T10:45:49.173Z,12.10
2023-02-09T10:46:48.886Z,10.60
2023-02-09T10:47:48.862Z,11.50
2023-02-09T10:48:48.861Z,12.00
2023-02-09T10:49:48.801Z,11.30
2023-02-09T10:50:48.832Z,11.70
2023-02-09T10:51:50.962Z,10.80
2023-02-09T10:52:48.783Z,10.70
2023-02-09T10:53:48.767Z,15.50
2023-02-09T10:54:48.820Z,13.80
2023-02-09T10:55:48.786Z,18.80
2023-02-09T10:56:48.757Z,20.40
2023-02-09T10:57:48.740Z,15.10
2023-02-09T10:58:48.713Z,11.20
2023-02-09T10:59:48.710Z,12.10
2023-02-09T11:00:48.720Z,11.70
2023-02-09T11:01:48.751Z,11.70
2023-02-09T11:02:48.706Z,11.00
2023-02-09T11:03:48.686Z,11.30
2023-02-09T11:04:48.726Z,11.40
2023-02-09T11:05:48.908Z,12.00
2023-02-09T11:06:49.571Z,10.70
2023-02-09T11:07:48.656Z,10.00
2023-02-09T11:08:48.625Z,11.20
2023-02-09T11:09:48.589Z,10.90
2023-02-09T11:10:48.591Z,10.70
2023-02-09T11:11:49.567Z,11.10
2023-02-09T11:12:48.592Z,11.30
2023-02-09T11:13:48.584Z,10.60
2023-02-09T11:14:48.551Z,9.90
2023-02-09T11:15:48.850Z,10.70
2023-02-09T11:16:48.568Z,11.00
2023-02-09T11:17:48.503Z,10.60
2023-02-09T11:18:48.622Z,10.80
2023-02-09T11:19:48.522Z,11.00
2023-02-09T11:20:49.442Z,11.10
2023-02-09T11:21:48.474Z,11.30
2023-02-09T11:22:48.473Z,11.50
2023-02-09T11:23:48.446Z,10.70
2023-02-09T11:24:48.451Z,10.70
2023-02-09T11:25:48.526Z,10.90
2023-02-09T11:26:48.417Z,10.50
2023-02-09T11:27:48.420Z,10.90
2023-02-09T11:28:48.414Z,10.50
2023-02-09T11:29:48.381Z,10.90
2023-02-09T11:30:48.894Z,11.30
2023-02-09T11:31:48.452Z,10.30
2023-02-09T11:32:48.401Z,10.00
2023-02-09T11:33:48.355Z,10.50
2023-02-09T11:34:48.326Z,10.50
2023-02-09T11:35:48.308Z,10.00
2023-02-09T11:36:48.308Z,10.00
2023-02-09T11:37:48.295Z,10.30
2023-02-09T11:38:48.324Z,9.90
2023-02-09T11:39:48.274Z,9.90
2023-02-09T11:40:48.400Z,10.80
2023-02-09T11:41:48.248Z,13.10
2023-02-09T11:42:48.257Z,18.30
2023-02-09T11:43:48.248Z,17.60
2023-02-09T11:44:48.247Z,11.30
2023-02-09T11:45:48.228Z,11.20
2023-02-09T11:46:48.275Z,11.00
2023-02-09T11:47:48.181Z,10.50
2023-02-09T11:48:48.211Z,10.20
2023-02-09T11:49:48.161Z,10.50
2023-02-09T11:50:48.300Z,11.20
2023-02-09T11:51:48.142Z,10.20
2023-02-09T11:52:48.141Z,10.20
2023-02-09T11:53:48.154Z,10.40
2023-02-09T11:54:48.118Z,10.60
2023-02-09T11:55:48.124Z,10.90
2023-02-09T11:56:48.099Z,10.70
2023-02-09T11:57:48.085Z,10.40
2023-02-09T11:58:48.073Z,10.70
2023-02-09T11:59:48.061Z,10.80
2023-02-09T12:00:56.026Z,10.70
2023-02-09T12:01:49.056Z,10.60
2023-02-09T12:02:48.094Z,10.70
2023-02-09T12:03:48.008Z,10.00
2023-02-09T12:04:48.047Z,10.90
2023-02-09T12:05:47.980Z,10.90
2023-02-09T12:06:48.084Z,11.50
2023-02-09T12:07:47.962Z,11.10
2023-02-09T12:08:48.772Z,11.10
2023-02-09T12:09:47.968Z,11.60
2023-02-09T12:10:47.933Z,11.20
2023-02-09T12:11:47.924Z,10.40
2023-02-09T12:12:47.902Z,10.80
2023-02-09T12:13:49.581Z,10.00
2023-02-09T12:14:47.935Z,9.90
2023-02-09T12:15:47.929Z,10.70
2023-02-09T12:16:47.876Z,11.40
2023-02-09T12:17:47.857Z,11.10
2023-02-09T12:18:47.847Z,11.00
2023-02-09T12:19:50.292Z,11.00
2023-02-09T12:20:48.162Z,11.00
2023-02-09T12:21:47.843Z,10.50
2023-02-09T12:22:47.815Z,11.00
2023-02-09T12:23:47.805Z,11.00
2023-02-09T12:24:47.786Z,9.80
2023-02-09T12:25:50.233Z,10.20
2023-02-09T12:26:47.761Z,10.40
2023-02-09T12:27:47.768Z,10.10
2023-02-09T12:28:47.774Z,9.20
2023-02-09T12:29:47.719Z,9.20
2023-02-09T12:30:48.042Z,9.70
2023-02-09T12:31:47.862Z,10.70
2023-02-09T12:32:47.683Z,9.30
2023-02-09T12:33:47.673Z,10.10
2023-02-09T12:34:47.695Z,10.00
2023-02-09T12:35:47.657Z,10.00
2023-02-09T12:36:47.679Z,9.30
2023-02-09T12:37:47.639Z,10.20
2023-02-09T12:38:55.490Z,10.20
2023-02-09T12:39:48.597Z,10.30
2023-02-09T12:40:48.562Z,10.30
2023-02-09T12:41:47.616Z,10.30
2023-02-09T12:42:47.590Z,10.10
2023-02-09T12:43:49.046Z,9.80
2023-02-09T12:44:47.636Z,9.50
2023-02-09T12:45:48.001Z,10.20
2023-02-09T12:46:47.556Z,9.70
2023-02-09T12:47:48.478Z,10.00
2023-02-09T12:48:47.518Z,10.60
2023-02-09T12:49:47.499Z,8.80
2023-02-09T12:50:47.526Z,9.70
2023-02-09T12:51:47.484Z,9.90
2023-02-09T12:52:47.489Z,9.00
2023-02-09T12:53:47.499Z,9.40
2023-02-09T12:54:47.453Z,9.00
2023-02-09T12:55:47.647Z,9.40
2023-02-09T12:56:47.437Z,10.30
2023-02-09T12:57:47.629Z,10.00
2023-02-09T12:58:48.883Z,9.50
2023-02-09T12:59:47.396Z,9.80
2023-02-09T13:00:47.395Z,10.00
2023-02-09T13:01:47.361Z,9.30
2023-02-09T13:02:47.391Z,9.30
2023-02-09T13:03:47.411Z,8.90
2023-02-09T13:04:47.369Z,9.10
2023-02-09T13:05:47.670Z,9.10
2023-02-09T13:06:47.320Z,9.40
2023-02-09T13:07:47.342Z,9.40
2023-02-09T13:08:47.314Z,9.50
2023-02-09T13:09:47.291Z,9.60
2023-02-09T13:10:47.310Z,10.00
2023-02-09T13:11:47.379Z,9.00